Hlavní strana
METAR-TAF:

METAR-TAF

Letiště :

Ozark, Alabama, Spojené státy americké

zeměpisná šířka: 31-17N, zeměpisná délka: 085-43W, výška: 91 m

Aktuální stav počasí

Zpráva byla vytvořena před 16 minutami, v 11:41 UTC
Bezvětří
Teplota 21°C
Vlhkost vzduchu 94%
Tlak 1022 hPa
Viditelnost: 16.1 km
Jasno

METAR: KOZR 241141Z AUTO 00000KT 10SM CLR 21/20 A3017 RMK AO2 SLP216

Čas: 06:57 (11:57 UTC)

Předpověď počasí

Zpráva byla vytvořena před 3 hodinami a 57 minutami, v 08:00 UTC
Předpověď platná od 24 v 08 UTC do 25 v 14 UTC
Východoseverovýchodní vítr 3 kt
Viditelnost 10 km a více
Skoro jasno ve výšce 3000 ft
Polojasno ve výšce 5000 ft
Změna
od 24 v 17 UTC do 24 v 18 UTC
Severoseverovýchodní vítr 6 kt
Viditelnost 10 km a více
Jasno

TAF: KOZR 240800Z 2408/2514 06003KT 9999 FEW030 SCT050 QNH3011INS BECMG 2417/2418 03006KT 9999 SKC QNH3007INS TX36/2421Z TN19/2412Z

Stav a předpovědi počasí z více než 4 000 letišť (zprávy METAR a TAF).

Červené a žluté tečky na mapě představují dostupné meteorologické stanice.

Když kurzor umístíte na tečku, zobrazí se název stanice.

Pak kliknutím zobrazíte stav a předpověď počasí.

Chcete-li změnit mapu, kliknutím na zelené tlačítko se znaménkem +mapu přiblížíte, kliknutím na zelené tlačítko se znaménkem – mapu oddálíte a kliknutím na zelené šipky přejdete na sousední mapy.


METAR-TAF: